Terminal Aerodrome Forecast
Issued by NWS Northern Indiana

Home | Current Version | Previous Version | Text Only | Print | Product List | Glossary On
Versions: 1 2 3 4 5 6 7 8 9 10 11 12 13 14 15 16 17
000
FTUS43 KIWX 192340
TAFFWA
TAF
KFWA 192340Z 2000/2024 27005KT P6SM SCT050
     FM200600 21003KT 5SM BR FEW050 BKN200
     FM201400 23008KT P6SM BKN045
     FM201700 25009KT P6SM VCSH SCT050 BKN150=

USA.gov is the U.S. government's official web portal to all federal, state and local government web resources and services.